Terminal Aerodrome Forecast
Issued by NWS

Home | Current Version | Previous Version | Text Only | Print | Product List | Glossary On
Versions: 1 2 3 4 5 6 7 8 9 10 11 12 13 14 15 16 17 18
000
FTUS46 KSTO 261000 AAA
TAFSMF
TAF AMD
KSMF 261029Z 2610/2706 32004KT 5SM BR BCFG FEW002
      TEMPO 2614/2617 1/2SM FG OVC002
     FM261700 VRB04KT P6SM SCT250=

USA.gov is the U.S. government's official web portal to all federal, state and local government web resources and services.